Date,TemperatureHighF,TemperatureAvgF,TemperatureLowF,DewpointHighF,DewpointAvgF,DewpointLowF,HumidityHigh,HumidityAvg,HumidityLow,PressureMaxIn,PressureMinIn,WindSpeedMaxMPH,WindSpeedAvgMPH,GustSpeedMaxMPH,PrecipitationSumIn
2012-1-1,85.8,66.7,56.1,64.6,55.1,48.1,95,71,31,30.12,29.98,16,2,16,0.00
2012-1-2,86.9,73.3,59.4,66.0,57.8,51.3,94,63,34,30.09,30.01,13,3,13,0.00
2012-1-3,90.3,70.6,61.7,63.1,58.1,55.2,86,67,34,30.12,29.92,17,2,17,0.00
2012-1-4,108.7,74.2,64.8,71.7,62.4,55.3,89,70,19,29.98,29.77,23,2,23,0.37
2012-1-5,83.1,71.9,69.6,67.6,61.7,57.8,87,71,46,30.09,29.86,21,6,21,0.00
2012-1-6,73.8,69.1,66.6,68.7,62.8,51.7,94,81,52,30.09,29.77,23,4,23,0.00
2012-1-7,82.4,64.9,56.3,65.5,56.2,52.0,96,77,40,30.06,29.86,20,2,20,0.00
2012-1-8,90.7,75.6,63.9,68.2,62.3,57.0,92,66,41,29.86,29.53,12,2,12,0.00
2012-1-9,87.1,76.7,70.9,74.3,66.5,58.7,95,73,47,29.83,29.50,17,4,17,0.00
2012-1-10,92.7,75.5,65.5,69.9,59.6,49.0,93,63,28,29.83,29.68,12,3,12,0.00
2012-1-11,92.8,70.4,62.8,63.5,54.7,33.0,92,66,18,29.77,29.53,23,3,23,0.00
2012-1-12,76.8,65.5,59.7,48.9,38.9,35.0,55,38,32,30.06,29.86,23,5,23,0.00
2012-1-13,87.6,64.5,56.3,59.8,52.3,47.9,89,68,30,30.09,29.95,13,1,13,0.00
2012-1-14,81.9,68.4,64.2,65.1,60.4,55.8,91,76,48,30.04,29.95,18,4,18,0.00
2012-1-15,81.9,67.8,64.0,66.1,62.3,54.9,95,84,46,30.12,29.98,17,3,17,0.34
2012-1-16,84.9,68.3,63.7,70.6,62.1,49.5,97,84,35,30.24,30.09,20,2,20,0.12
2012-1-17,85.6,68.7,61.5,70.5,60.0,50.9,95,77,34,30.24,30.09,17,1,17,0.00
2012-1-18,88.0,71.3,66.2,71.7,65.6,59.4,97,85,41,30.12,29.86,13,2,13,0.00
2012-1-19,85.8,76.6,68.0,70.1,66.3,62.0,94,73,49,30.01,29.86,19,4,19,0.00
2012-1-20,86.4,73.7,68.7,68.0,65.2,58.1,90,76,42,30.01,29.89,16,3,16,0.00
2012-1-21,88.0,72.3,68.0,73.3,65.7,58.9,94,81,40,29.98,29.86,20,2,20,0.00
2012-1-22,83.1,74.4,69.8,63.0,58.5,53.3,79,59,42,30.18,30.01,17,7,17,0.00
2012-1-23,82.2,71.5,67.6,67.0,58.8,54.2,81,65,43,30.21,30.09,17,6,17,0.09
2012-1-24,82.4,72.7,69.1,69.7,61.1,56.8,90,68,48,30.12,29.86,16,3,16,0.08
2012-1-25,77.0,71.1,68.5,70.7,68.7,67.1,97,92,74,29.89,29.74,14,2,14,0.66
2012-1-26,82.9,71.0,67.5,73.8,67.1,62.9,98,89,55,29.89,29.74,17,2,17,0.00
2012-1-27,85.3,73.3,67.6,73.4,66.3,59.3,95,80,44,29.98,29.86,15,3,15,0.13
2012-1-28,87.1,72.4,69.1,73.8,66.7,59.8,96,83,44,29.92,29.80,16,2,16,0.16
2012-1-29,87.1,72.9,70.0,67.7,66.1,60.4,88,80,43,29.83,29.62,19,3,19,0.00
2012-1-30,95.4,76.0,70.9,70.9,67.2,63.1,93,77,39,29.65,29.44,19,5,22,0.04
2012-1-31,91.2,80.5,68.4,73.0,66.8,56.3,91,64,43,29.83,29.47,20,6,20,0.09
2012-2-1,67.6,66.2,63.9,65.6,63.7,60.7,98,92,84,29.95,29.83,14,4,14,1.24
2012-2-2,66.6,64.8,62.6,64.8,61.6,57.1,98,90,74,29.89,29.71,20,4,20,1.41
2012-2-3,67.5,66.1,63.9,66.9,65.2,61.8,98,97,93,29.65,29.65,8,3,8,0.00
2012-2-4,88.7,70.3,65.5,66.8,64.6,58.2,98,85,41,29.62,29.50,12,2,12,0.00
2012-2-5,91.8,69.3,62.6,71.8,64.0,59.6,98,86,38,29.62,29.44,15,1,15,0.00
2012-2-6,84.7,73.0,65.8,72.7,65.0,61.6,96,77,54,29.62,29.39,25,4,25,0.00
2012-2-7,72.7,69.5,68.2,68.4,66.9,63.6,98,91,75,29.68,29.56,14,4,14,0.37
2012-2-8,82.9,75.1,68.9,63.8,59.6,55.5,81,60,43,29.92,29.68,16,5,16,0.00
2012-2-9,86.2,75.5,66.6,67.9,60.5,55.0,88,62,38,29.89,29.83,17,4,17,0.00
2012-2-10,83.1,73.0,63.1,65.4,60.9,56.7,95,67,48,29.89,29.74,19,4,19,1.00
2012-2-11,84.7,68.4,64.0,70.6,63.4,54.5,98,86,41,29.89,29.71,20,2,20,0.13
2012-2-12,85.3,63.9,57.2,65.9,58.4,55.1,98,86,39,30.01,29.86,13,1,13,0.00
2012-2-13,87.1,72.6,65.7,69.1,63.9,55.4,97,76,44,30.09,29.92,14,2,14,0.03
2012-2-14,84.6,70.9,60.3,70.7,59.7,54.7,97,72,39,30.15,30.06,15,3,15,0.05
2012-2-15,86.2,72.7,64.9,69.0,61.6,52.5,98,73,35,30.15,30.06,13,2,13,1.45
2012-2-16,86.7,73.1,60.6,68.9,58.9,51.8,97,66,33,30.15,30.04,15,3,15,0.00
2012-2-17,81.9,63.7,59.2,68.9,59.7,57.6,97,88,49,30.06,30.01,7,0,7,0.00
2012-2-18,75.6,67.8,65.8,70.0,64.9,63.2,94,90,77,30.01,29.95,4,0,4,0.00
2012-2-20,85.8,78.5,68.2,69.4,64.7,58.7,98,64,44,29.86,29.74,18,5,18,1.37
2012-2-21,80.6,70.2,65.3,69.3,64.5,56.9,98,84,57,29.86,29.71,22,5,22,0.79
2012-2-22,79.7,71.9,65.5,64.7,60.7,56.9,93,70,48,30.01,29.86,17,4,17,0.08
2012-2-23,90.1,82.4,66.0,69.8,61.9,57.7,98,52,38,30.12,30.04,12,4,12,0.00
2012-2-24,89.2,73.3,61.3,74.2,62.8,58.4,97,74,38,30.21,30.09,15,2,15,0.00
2012-2-25,87.1,73.6,62.2,72.0,62.9,57.6,97,72,43,30.21,30.12,20,4,20,0.00
2012-2-26,90.9,75.8,70.5,66.3,63.3,58.7,81,67,40,30.15,30.01,13,4,13,0.00
2012-2-27,95.4,80.3,70.0,65.1,61.6,57.8,76,55,36,30.06,29.92,11,3,11,0.00
2012-2-28,97.2,81.4,69.6,72.1,65.2,60.7,90,62,32,29.98,29.83,14,3,14,0.00
2012-2-29,77.2,73.9,70.2,70.7,67.9,64.3,95,82,70,29.92,29.80,12,4,12,0.05
2012-3-1,97.5,78.8,69.8,72.0,67.0,56.2,98,73,28,29.83,29.53,16,4,16,0.00
2012-3-2,75.6,67.3,64.6,70.4,65.0,61.6,97,92,82,30.06,29.71,22,6,22,1.74
2012-3-3,71.6,65.9,63.7,67.4,62.4,57.1,97,89,62,30.09,30.01,13,2,13,0.16
2012-3-4,96.6,72.8,65.5,69.9,62.3,59.2,90,71,32,30.01,29.77,14,3,14,0.00
2012-3-5,83.5,72.8,68.0,72.0,67.2,52.2,97,84,38,30.01,29.74,23,2,23,0.08
2012-3-6,81.5,75.8,68.5,64.4,57.2,53.2,81,54,42,30.09,30.04,24,7,24,0.00
2012-3-7,78.4,66.2,60.4,63.5,57.1,49.3,96,75,42,30.09,29.95,22,6,22,0.70
2012-3-8,77.7,64.6,59.9,63.2,57.2,53.4,94,78,51,29.83,29.71,22,7,22,0.54
2012-3-9,92.3,71.4,56.8,60.1,55.0,50.3,97,63,28,29.86,29.74,13,3,13,0.00
2012-3-10,86.7,65.5,58.5,66.9,59.1,51.7,97,84,32,30.01,29.86,19,1,19,0.00
2012-3-11,84.6,69.3,61.3,64.5,58.1,52.1,90,69,41,30.12,29.98,13,2,13,0.00
2012-3-12,81.0,75.7,65.8,68.9,59.4,51.6,95,59,40,30.18,30.09,17,5,17,0.00
2012-3-13,88.2,74.9,60.1,66.5,58.1,49.2,95,60,30,30.21,30.09,15,3,15,0.00
2012-3-14,84.4,72.6,60.8,69.6,60.9,56.0,97,70,41,30.12,29.98,17,3,17,0.00
2012-3-15,91.2,75.0,64.2,70.5,63.1,56.8,96,71,35,30.06,29.89,15,2,15,0.00
2012-3-16,94.6,85.2,67.5,70.1,63.4,59.0,96,51,32,29.92,29.77,13,4,14,0.00
2012-3-17,72.9,70.6,66.7,68.2,64.5,60.7,96,81,70,30.04,29.80,21,3,21,0.33
2012-3-18,79.3,68.1,65.1,61.6,57.5,54.5,78,69,46,30.21,30.06,22,5,22,0.00
2012-3-19,78.1,70.8,67.1,64.3,57.5,52.7,87,63,47,30.24,30.12,20,6,20,0.05
2012-3-20,83.1,74.6,66.2,62.2,57.3,52.6,78,57,39,30.15,29.98,12,5,12,0.00
2012-3-21,87.6,75.7,64.9,65.5,62.3,59.4,92,65,41,29.95,29.59,9,3,9,0.00
2012-3-22,75.0,69.7,66.6,66.3,61.8,58.9,92,77,60,29.83,29.59,12,3,12,0.00
2012-3-23,91.0,80.5,67.1,66.8,55.6,36.0,92,48,20,29.74,29.53,14,5,14,0.00
2012-3-24,84.9,64.2,58.5,46.6,39.3,35.7,57,41,21,30.06,29.80,14,4,14,0.00
2012-3-25,79.2,62.6,55.9,56.9,50.8,48.3,80,67,36,30.24,30.09,14,1,14,0.00
2012-3-26,81.3,70.4,59.2,60.1,55.2,52.3,87,60,42,30.27,30.15,13,3,13,0.00
2012-3-27,85.6,68.9,59.2,64.6,56.6,51.5,90,68,35,30.27,30.18,13,2,13,0.00
2012-3-28,85.3,76.5,64.4,65.9,57.6,50.4,91,55,33,30.27,30.09,15,4,15,0.00
2012-3-29,91.0,80.0,61.0,64.9,58.3,53.0,94,50,29,30.12,30.01,10,3,10,0.00
2012-3-30,81.3,69.7,60.1,67.1,59.7,53.8,97,73,45,30.12,30.04,16,3,16,0.00
2012-3-31,61.5,61.4,61.3,59.2,58.8,58.7,92,91,91,30.09,30.09,0,0,0,0.00
2012-4-1,92.1,71.5,56.5,66.7,55.9,46.0,97,66,22,30.09,29.98,8,1,8,0.00
2012-4-2,88.2,76.0,63.9,63.8,57.8,52.5,87,55,35,30.09,29.98,13,3,13,0.00
2012-4-3,91.6,78.2,61.0,66.1,58.5,51.0,93,55,30,30.04,29.95,11,2,11,0.00
2012-4-4,86.5,76.3,63.7,68.9,60.3,54.9,90,61,38,30.09,29.98,15,4,15,0.00
2012-4-5,84.0,72.9,61.0,67.6,57.8,52.0,93,63,35,30.18,30.09,12,2,12,0.00
2012-4-8,67.5,67.0,66.4,64.4,63.7,63.4,90,89,88,29.95,29.92,6,2,6,0.00
2012-4-9,80.6,70.1,59.2,64.3,44.3,36.3,91,43,22,30.06,29.92,14,4,14,0.00
2012-4-10,71.2,59.7,53.4,52.9,41.2,33.9,72,51,35,30.42,30.09,35,7,35,0.00
2012-4-11,69.3,58.7,56.3,59.0,41.6,38.8,88,53,47,30.48,30.39,20,5,20,0.33
2012-4-12,79.2,64.3,55.8,59.2,54.2,49.1,94,73,40,30.54,30.45,11,2,11,6.15
2012-4-13,87.1,60.1,52.5,60.9,53.9,48.8,98,84,29,30.54,30.39,10,1,10,0.00
2012-4-14,82.8,58.4,55.2,61.8,56.0,54.2,98,92,42,30.42,30.33,5,0,5,0.00
2012-4-15,75.6,67.3,61.0,66.3,61.4,57.9,96,82,61,30.30,30.18,6,1,6,0.00
2012-4-16,69.8,64.9,63.1,68.6,63.7,62.3,98,96,94,30.21,30.15,8,1,8,0.42
2012-4-17,66.6,63.5,61.3,65.3,62.3,60.5,98,96,89,30.18,30.06,12,2,12,2.69
2012-4-18,73.6,64.3,63.0,70.4,63.4,61.4,98,97,74,30.06,29.95,8,0,10,2.10
2012-4-19,81.5,64.7,60.3,72.0,62.6,58.7,98,94,51,30.04,29.86,13,0,13,1.00
2012-4-20,90.9,68.0,61.7,67.5,63.6,57.5,98,89,33,29.95,29.86,12,0,12,1.00
2012-4-21,84.9,65.8,62.2,72.2,62.5,58.6,98,91,45,29.95,29.83,13,0,13,0.00
2012-4-22,75.4,66.6,59.7,68.2,61.6,59.2,98,85,66,29.95,29.83,6,0,6,0.00
2012-4-23,74.3,73.0,70.0,63.5,62.6,59.7,73,70,68,29.89,29.77,6,0,8,0.20
2012-4-24,74.3,71.0,59.5,61.5,58.0,37.6,75,64,40,29.95,29.77,6,0,6,0.00
2012-4-25,73.6,58.7,52.5,42.4,38.0,35.0,60,47,30,29.95,29.80,12,2,12,0.00
2012-4-26,81.5,64.9,54.9,48.5,42.6,38.8,75,46,30,30.15,29.98,9,1,9,0.00
2012-4-27,81.0,64.2,52.0,61.8,51.5,48.5,93,68,34,30.24,30.09,5,0,5,0.00
2012-4-28,73.2,58.8,55.9,61.9,54.8,52.0,96,87,52,30.24,30.09,6,0,6,0.00
2012-4-29,78.1,56.9,50.9,56.9,50.7,44.3,95,82,36,30.30,30.06,12,0,12,0.21
2012-4-30,73.4,61.7,53.6,54.9,48.6,46.1,84,63,44,30.39,30.27,4,0,4,0.00
2012-5-1,82.0,63.0,48.7,61.6,51.0,47.0,98,70,34,30.39,30.21,6,0,6,0.00
2012-5-2,85.5,67.0,52.5,63.3,53.4,49.9,95,67,31,30.30,30.09,5,0,5,0.00
2012-5-3,80.8,66.9,56.5,63.7,56.8,48.7,93,73,37,30.15,30.04,4,0,4,0.08
2012-5-4,81.7,66.7,53.8,60.6,51.2,46.4,95,63,32,30.18,30.04,6,0,6,0.00
2012-5-5,77.4,57.2,51.8,51.9,46.7,43.5,91,69,35,30.09,29.95,10,0,10,0.00
2012-5-6,78.4,60.8,46.9,48.2,44.5,40.3,94,61,30,30.09,29.98,10,0,10,0.00
2012-5-7,73.9,55.4,45.5,52.0,43.8,40.3,89,69,33,30.15,30.04,4,0,4,0.00
2012-5-8,82.2,60.6,44.2,60.0,45.6,40.4,97,66,25,30.15,30.06,6,0,6,0.00
2012-5-9,85.6,68.3,48.4,58.1,47.9,44.5,96,56,26,30.24,30.09,5,1,5,0.00
2012-5-10,90.9,68.3,51.3,55.4,49.2,44.9,94,60,22,30.24,30.09,5,0,5,0.00
2012-5-11,87.6,68.4,52.9,54.8,48.6,43.6,93,57,24,30.18,29.98,5,1,5,0.00
2012-5-12,78.6,56.2,49.8,61.2,46.6,36.0,96,74,30,30.09,29.98,7,0,7,0.00
2012-5-13,72.0,55.2,48.0,42.7,35.7,32.7,80,49,28,30.09,29.92,12,2,12,0.00
2012-5-14,71.8,57.6,45.0,40.1,36.6,33.4,70,47,30,30.30,30.09,9,1,9,0.00
2012-5-15,75.4,55.9,41.5,51.2,40.7,37.7,93,63,31,30.30,30.21,7,0,7,0.00
2012-5-16,74.1,60.9,49.8,50.3,45.8,41.4,85,61,33,30.33,30.21,6,0,6,0.00
2012-5-17,80.4,61.3,44.4,61.4,47.0,43.3,98,66,31,30.33,30.21,4,0,4,0.00
2012-5-18,81.0,59.8,44.4,60.6,46.3,41.0,98,69,30,30.33,30.21,3,0,3,0.00
2012-5-19,77.4,50.8,43.7,52.9,44.2,40.5,98,83,30,30.30,30.15,9,0,9,0.00
2012-5-20,73.8,48.2,42.3,56.9,43.3,39.2,95,84,46,30.36,30.24,6,0,6,0.34
2012-5-21,58.6,57.4,56.8,58.1,56.7,56.0,98,97,97,30.33,30.33,0,0,0,0.00
2012-5-22,77.0,67.8,46.6,58.8,44.3,36.8,98,49,25,30.30,30.18,8,1,8,0.00
2012-5-23,76.3,58.9,43.5,42.4,39.0,33.0,86,54,23,30.33,30.18,7,1,7,0.00
2012-5-24,59.7,49.8,32.0,53.6,42.0,38.1,90,75,51,30.24,0.00,3,0,3,0.00
2012-5-25,66.6,59.4,56.1,56.4,48.6,32.7,92,71,33,30.04,29.89,13,2,13,0.00
2012-5-26,69.3,58.4,50.4,43.0,38.0,32.9,63,48,32,30.12,29.95,11,3,11,0.00
2012-5-27,72.1,54.7,41.9,50.8,41.2,37.9,89,64,33,30.24,30.09,6,0,6,0.00
2012-5-28,72.1,60.3,50.7,52.2,46.7,41.8,91,64,37,30.42,30.21,8,1,8,0.00
2012-5-29,70.0,59.8,53.4,58.8,53.9,50.8,95,82,58,30.54,30.39,6,0,6,0.46
2012-5-30,73.2,59.9,52.2,59.4,52.2,43.7,98,79,41,30.60,30.51,5,0,5,0.00
2012-5-31,55.8,53.8,52.2,52.3,49.8,48.4,91,86,80,30.57,30.54,2,0,2,0.00
2012-6-1,63.7,60.8,56.1,59.4,57.3,55.0,97,88,82,30.45,30.30,4,0,4,0.25
2012-6-2,66.6,58.1,55.0,65.1,56.7,54.5,98,95,79,30.30,30.01,24,0,24,0.12
2012-6-3,69.4,60.0,58.3,64.9,58.6,51.3,98,95,66,30.01,29.77,4,0,4,0.66
2012-6-4,74.8,65.6,55.2,62.4,52.8,33.5,97,65,41,29.68,29.56,24,2,24,0.25
2012-6-5,65.5,56.6,49.3,55.2,36.5,32.7,96,48,34,29.77,29.53,23,7,23,0.91
2012-6-6,64.9,58.8,52.5,52.1,46.7,41.1,89,65,47,30.18,29.80,30,8,30,0.49
2012-6-7,64.2,55.8,45.7,48.7,44.9,39.5,91,69,45,30.30,30.15,11,3,11,0.25
2012-6-8,67.8,55.6,40.6,53.9,40.5,34.0,98,63,33,30.36,30.27,7,1,7,0.05
2012-6-9,72.3,44.7,38.5,49.7,39.6,36.9,98,86,32,30.36,30.30,8,0,8,0.00
2012-6-10,63.7,50.0,45.1,53.2,47.2,42.7,96,91,58,30.36,30.24,10,1,10,0.08
2012-6-11,60.1,54.6,52.7,56.4,53.2,48.6,98,95,67,30.27,30.09,17,2,17,2.74
2012-6-12,70.9,65.7,56.7,55.4,47.3,43.4,94,53,39,30.15,30.06,17,6,17,0.66
2012-6-13,67.6,61.9,52.7,57.6,54.0,50.8,95,76,60,30.18,30.09,10,3,10,0.37
2012-6-14,73.9,59.0,48.9,52.5,49.4,47.2,97,74,43,30.12,30.06,6,1,6,0.00
2012-6-15,70.3,52.1,48.0,54.0,48.8,45.8,98,90,42,30.09,29.98,6,0,6,0.05
2012-6-16,66.4,53.7,50.2,54.8,48.3,44.3,89,83,49,30.12,29.98,17,0,17,0.00
2012-6-17,68.7,59.4,52.0,50.7,43.5,38.0,81,58,33,30.18,30.06,14,5,14,0.00
2012-6-18,71.6,59.8,43.2,51.4,40.0,34.3,90,52,28,30.24,30.15,10,2,11,0.00
2012-6-19,71.1,60.4,42.3,45.4,40.9,38.0,93,52,34,30.24,30.09,10,4,10,0.00
2012-6-20,65.7,57.5,41.2,52.4,40.9,35.2,97,58,36,30.24,30.09,12,3,12,0.00
2012-6-21,72.5,61.0,53.2,41.6,37.9,34.9,53,43,31,30.09,29.92,26,8,26,0.00
2012-6-22,68.0,60.2,53.4,42.6,37.6,32.6,61,43,35,30.01,29.80,25,7,25,0.00
2012-6-23,68.0,51.2,43.7,41.1,38.2,31.3,80,63,26,30.33,30.06,12,4,12,0.00
2012-6-24,65.1,44.1,36.9,39.8,35.4,32.5,92,74,34,30.48,30.33,10,2,10,0.00
2012-6-25,70.5,56.9,39.7,44.2,38.5,35.9,95,54,33,30.45,30.30,13,4,13,0.00
2012-6-26,57.9,53.7,47.1,55.6,48.0,38.8,97,81,55,30.51,30.39,15,2,15,0.74
2012-6-27,62.8,54.2,50.9,50.8,47.8,39.9,90,80,44,30.51,30.39,10,1,10,0.09
2012-6-28,69.8,58.1,50.5,59.1,51.9,45.2,98,82,47,30.39,30.15,10,2,10,0.37
2012-6-29,68.0,60.7,51.4,60.3,52.0,48.2,98,75,53,30.15,29.92,9,2,9,0.04
2012-6-30,73.8,54.8,48.6,50.3,46.7,38.1,97,78,31,30.04,29.92,10,1,10,0.00
2012-7-1,67.5,49.7,46.0,49.1,42.8,29.4,94,81,30,30.09,29.98,18,1,18,0.00
2012-7-2,64.4,50.0,34.9,39.7,34.3,-56.4,71,57,1,30.12,30.04,17,6,17,0.32
2012-7-3,65.5,55.1,42.1,48.8,37.3,29.4,93,56,27,30.18,30.09,11,2,12,0.00
2012-7-4,64.9,51.1,45.0,43.0,34.3,31.2,76,53,38,30.45,30.18,18,3,18,0.00
2012-7-5,63.9,51.7,48.9,47.2,44.0,39.9,89,76,45,30.54,30.39,19,4,19,0.13
2012-7-6,61.5,52.5,50.4,50.8,48.8,44.9,96,88,58,30.57,30.48,14,3,14,0.66
2012-7-7,65.5,52.2,47.7,48.6,45.9,42.6,89,80,48,30.57,30.45,9,2,9,0.00
2012-7-8,72.0,51.2,44.4,56.9,46.9,40.8,98,88,35,30.54,30.39,8,0,8,0.00
2012-7-9,70.9,48.1,41.2,52.2,43.5,40.1,98,87,39,30.48,30.33,9,1,9,0.00
2012-7-10,72.0,58.7,52.7,51.0,47.9,42.0,84,68,36,30.39,30.15,17,3,17,0.00
2012-7-11,70.3,58.3,53.8,54.3,50.2,45.1,95,76,43,30.21,30.09,12,3,12,0.13
2012-7-12,62.1,53.7,50.4,56.2,51.2,48.7,96,91,73,30.18,29.98,15,1,15,0.08
2012-7-13,64.0,59.6,55.2,61.5,55.2,51.1,95,86,74,29.98,29.80,13,5,13,0.21
2012-7-14,70.5,60.3,55.2,56.7,49.4,34.3,94,72,32,30.01,29.83,16,2,16,0.00
2012-7-15,69.3,54.2,44.4,46.3,40.6,33.0,92,62,30,30.27,29.98,15,5,15,0.00
2012-7-16,72.9,51.1,46.4,42.0,35.4,32.3,83,56,28,30.42,30.30,9,4,9,0.00
2012-7-17,72.1,59.4,43.0,52.4,41.1,36.2,92,56,28,30.42,30.21,9,3,9,0.00
2012-7-18,75.7,61.4,46.8,48.3,44.5,41.4,88,57,33,30.21,30.04,8,2,8,0.00
2012-7-19,64.6,55.2,43.3,50.3,42.0,37.4,96,64,43,30.24,30.09,15,4,15,0.00
2012-7-20,66.7,61.3,52.0,42.5,39.5,35.4,56,45,38,30.36,30.27,14,5,14,0.00
2012-7-21,66.4,56.3,53.6,49.5,45.8,37.0,80,69,38,30.45,30.33,23,4,23,0.00
2012-7-22,65.3,54.0,51.6,52.0,47.0,39.0,93,78,50,30.45,30.39,22,4,22,0.53
2012-7-23,66.7,58.3,52.9,55.6,46.9,38.7,89,67,38,30.45,30.33,16,4,16,0.42
2012-7-24,68.0,58.0,48.7,53.9,49.8,46.1,94,76,48,30.42,30.33,8,2,8,0.04
2012-7-25,69.8,59.1,45.7,58.5,45.2,37.6,98,65,34,30.33,30.15,10,2,10,0.00
2012-7-26,75.2,60.7,48.7,53.7,44.1,39.2,91,58,32,30.12,29.95,10,3,11,0.00
2012-7-27,68.5,60.3,48.4,51.1,39.5,32.0,92,50,28,29.98,29.89,11,3,12,0.00
2012-7-28,51.8,50.4,48.9,36.7,35.3,34.3,59,56,52,29.98,29.98,7,3,7,0.00
2012-8-5,58.6,55.8,52.5,38.5,34.5,31.4,58,45,36,30.01,29.98,11,4,11,0.00
2012-8-6,73.0,66.2,54.1,37.5,33.9,28.9,50,31,21,30.12,29.98,14,6,14,0.00
2012-8-7,66.2,55.5,46.0,42.7,34.8,27.8,75,48,25,30.33,30.21,6,2,6,0.00
2012-8-8,69.8,64.4,53.2,35.5,31.3,27.2,49,29,23,30.24,30.04,11,6,17,0.00
2012-8-9,73.8,61.6,53.6,40.6,33.7,23.9,45,36,22,30.06,29.86,6,4,12,0.00
2012-8-10,62.2,54.8,48.9,48.0,35.1,26.3,87,50,33,30.18,29.98,14,8,30,0.70
2012-8-11,61.5,55.2,50.5,51.3,45.0,36.4,93,69,52,30.21,30.15,11,6,28,0.71
2012-8-12,65.1,53.8,51.3,50.3,45.9,39.2,90,76,46,30.36,30.21,8,5,23,0.21
2012-8-13,69.8,62.5,46.9,47.4,41.7,38.3,86,49,34,30.39,30.21,6,3,10,0.04
2012-8-14,74.3,64.8,49.8,51.3,38.8,31.5,91,42,23,30.27,30.09,6,3,10,0.00
2012-8-15,72.9,59.1,45.5,46.0,36.8,31.4,73,47,24,30.15,29.92,10,3,17,0.00
2012-8-16,72.0,60.5,47.1,46.7,38.9,35.5,77,48,29,30.01,29.89,4,1,6,0.00
2012-8-17,74.5,65.6,49.8,41.5,33.6,28.6,67,32,21,29.89,29.65,21,9,30,0.00
2012-8-18,64.4,54.7,52.2,37.4,31.5,27.9,52,41,34,30.04,29.80,16,10,28,0.00
2012-8-19,76.1,53.8,47.5,42.7,39.4,32.7,76,60,24,30.24,30.06,9,4,13,0.00
2012-8-20,73.0,63.2,48.6,49.6,40.4,35.2,87,45,28,30.33,30.15,6,3,11,0.00
2012-8-21,78.6,65.1,46.0,51.1,38.5,31.3,93,44,21,30.21,30.04,8,3,13,0.00
2012-8-22,79.7,69.4,32.0,53.8,46.6,42.4,78,46,31,30.06,29.89,7,4,10,0.00
2012-8-23,86.7,79.4,61.0,57.6,45.2,36.4,88,32,19,29.95,29.71,16,8,31,0.37
2012-8-24,71.2,65.8,59.7,54.7,34.6,26.1,82,36,22,30.09,29.80,12,8,22,0.00
2012-8-25,75.4,57.3,46.0,41.9,33.0,28.8,74,41,21,30.12,30.04,8,3,13,0.00
2012-8-26,72.0,50.4,40.8,43.2,36.2,29.5,85,62,24,30.21,30.09,6,2,11,0.00
2012-8-27,75.7,64.3,49.5,45.0,40.3,36.7,76,43,30,30.33,30.24,6,3,11,0.00
2012-8-28,80.2,66.2,45.7,51.8,43.4,36.0,84,47,22,30.33,30.15,6,3,11,0.00
2012-8-29,77.5,63.7,50.7,51.7,44.8,38.1,84,54,26,30.18,29.89,7,3,10,0.00
2012-8-30,80.4,70.1,52.3,53.8,40.1,25.3,78,39,20,30.06,29.80,11,4,18,0.00
2012-8-31,73.6,59.8,47.8,39.7,30.4,26.5,63,34,21,30.18,29.98,10,4,21,0.00
2012-9-1,66.9,50.4,44.2,44.2,31.1,24.9,71,49,25,30.30,30.15,8,3,15,0.05
2012-9-2,75.4,55.1,47.7,42.3,39.1,31.2,74,57,22,30.33,30.15,6,2,12,0.00
2012-9-3,82.2,58.8,40.5,51.4,38.8,33.3,92,57,20,30.27,30.15,6,1,9,0.00
2012-9-4,79.7,68.1,52.0,50.5,39.8,32.0,75,39,20,30.30,30.15,6,2,10,0.00
2012-9-5,82.8,75.4,49.5,44.5,34.7,30.9,82,24,17,30.18,29.80,13,7,20,0.00
2012-9-6,83.3,74.9,58.6,41.7,36.1,30.0,50,25,16,29.86,29.74,19,11,26,0.00
2012-9-7,73.0,67.0,59.2,31.9,29.4,25.3,34,25,22,29.95,29.74,12,9,26,0.00
2012-9-8,75.4,59.4,53.8,36.6,32.2,30.0,44,36,22,30.12,29.95,10,6,21,0.00
2012-9-9,74.8,54.8,45.1,45.0,37.3,32.0,74,54,23,30.30,30.09,8,2,17,0.00
2012-9-10,81.7,72.2,56.8,52.6,42.6,33.1,81,38,19,30.36,30.15,7,4,15,0.00
2012-9-11,75.0,64.7,50.0,54.4,49.2,43.2,84,59,40,30.33,30.21,10,4,18,0.00
2012-9-12,81.0,70.4,53.2,59.8,52.1,46.5,92,55,32,30.30,30.01,8,4,15,0.00
2012-9-13,83.1,66.0,54.1,55.9,47.1,36.8,92,56,22,29.98,29.68,12,5,24,0.13
2012-9-14,65.7,57.6,46.9,40.3,34.7,29.0,72,45,28,30.18,30.01,7,4,13,0.00
2012-9-15,73.0,64.9,56.8,50.0,43.5,38.6,72,47,33,30.33,30.27,10,5,18,0.00
2012-9-16,76.5,53.2,46.6,59.0,46.9,39.8,94,82,32,30.33,30.09,7,1,13,0.00
2012-9-17,73.9,67.1,58.3,57.8,52.5,48.3,91,60,44,30.18,30.04,10,5,17,0.00
2012-9-18,81.9,68.9,54.3,53.6,47.9,42.6,91,51,27,30.15,29.98,9,3,18,0.04
2012-9-19,69.3,67.3,65.3,57.5,51.9,49.2,75,58,51,30.06,30.06,3,2,4,0.00
2012-9-20,75.9,72.4,67.3,55.9,49.3,46.6,67,44,38,30.18,29.98,7,5,12,0.00
2012-9-21,80.8,72.0,56.7,52.9,50.0,46.6,82,48,32,30.01,29.92,3,1,6,0.00
2012-9-23,85.5,81.3,70.9,47.0,39.1,36.0,40,23,19,29.83,29.71,8,5,12,0.00
2012-9-24,76.3,74.5,72.9,33.5,32.0,31.1,22,21,20,29.95,29.89,7,6,13,0.00
2012-9-25,70.3,62.4,52.0,56.0,45.9,38.0,84,56,41,30.24,30.09,8,4,13,0.04
2012-9-26,74.1,62.8,59.5,53.7,48.5,45.5,69,60,39,30.24,30.09,10,3,21,0.00
2012-9-27,81.7,60.1,50.2,57.4,49.5,46.7,91,71,33,30.21,29.98,7,2,13,0.00
2012-9-28,90.9,71.6,64.6,53.5,47.4,40.0,62,44,19,29.95,29.68,15,5,24,0.00
2012-9-29,82.2,71.4,59.2,55.7,45.7,28.8,62,42,18,30.04,29.71,14,6,29,0.00
2012-9-30,76.8,54.4,43.2,37.7,29.5,25.7,61,40,18,30.30,30.06,9,2,17,0.00
2012-10-1,72.5,57.5,49.6,47.2,40.9,35.3,72,56,32,30.48,30.33,8,1,13,0.00
2012-10-2,72.3,59.6,52.5,52.7,46.5,36.1,80,63,30,30.57,30.45,8,2,20,0.04
2012-10-3,87.3,57.1,45.9,54.5,42.9,23.3,91,67,11,30.45,30.15,7,1,12,0.00
2012-10-4,93.9,63.7,51.8,47.2,40.0,31.1,65,45,12,30.21,29.95,10,2,17,0.00
2012-10-5,100.6,73.7,64.4,59.6,40.9,31.7,77,33,10,30.09,29.86,9,4,15,0.00
2012-10-6,69.4,64.7,63.1,55.3,53.8,49.3,73,68,50,30.12,29.86,9,4,19,0.00
2012-10-7,72.3,67.8,59.5,55.3,35.1,29.7,80,31,22,30.06,29.77,12,9,23,0.00
2012-10-8,71.6,66.0,59.5,47.8,40.6,37.6,62,40,33,30.09,29.92,7,5,14,0.00
2012-10-9,124.3,119.4,54.3,99.9,95.8,41.8,75,74,50,29.98,29.86,9,6,17,0.04
2012-10-10,124.3,120.1,62.4,99.9,96.3,44.8,75,74,49,29.95,29.77,10,4,17,0.00
2012-10-11,124.3,117.8,58.3,99.9,94.0,39.2,75,72,44,29.80,29.71,10,3,16,0.05
2012-10-12,124.3,110.8,52.7,99.9,87.4,36.6,75,70,40,30.12,29.83,12,8,20,0.00
2012-10-13,124.3,124.3,124.3,99.9,99.9,99.9,75,75,75,30.24,30.15,10,5,18,0.00
2012-10-14,124.3,124.3,124.3,99.9,99.9,99.9,75,75,75,30.36,30.33,2,0,2,0.00
2012-10-15,124.3,119.6,63.1,99.9,95.2,40.0,75,72,32,30.36,30.18,7,5,13,0.00
2012-10-16,124.3,122.2,73.8,99.9,97.5,42.0,75,73,30,30.18,29.95,10,6,14,0.00
2012-10-17,124.3,120.2,60.8,99.9,96.5,46.3,75,74,49,30.18,29.95,12,7,20,0.00
2012-10-18,124.3,119.6,64.8,99.9,96.2,51.8,75,74,62,30.24,30.09,10,6,17,0.00
2012-10-19,124.3,122.3,67.3,99.9,98.0,45.8,75,74,44,30.06,29.86,8,4,15,0.00
2012-10-20,124.3,124.3,124.3,99.9,99.9,99.9,75,75,75,29.89,29.86,0,0,0,0.00
2012-10-21,77.2,74.6,68.4,54.8,46.8,45.0,62,38,32,29.95,29.86,9,6,15,0.00
2012-10-22,124.3,118.9,57.2,99.9,95.0,37.3,75,73,41,30.30,29.98,13,7,24,0.00
2012-10-23,124.3,121.1,58.5,99.9,96.8,36.8,75,73,39,30.42,30.33,10,8,22,0.00
2012-10-24,124.3,119.6,62.4,99.9,95.9,46.0,75,74,54,30.33,30.06,9,5,14,0.00
2012-10-25,124.3,121.3,72.0,99.9,96.7,43.9,75,73,34,30.01,29.71,10,6,18,0.00
2012-10-26,124.3,120.5,63.0,99.9,96.9,52.4,75,74,60,29.89,29.77,8,5,15,0.00
2012-10-27,124.3,111.8,60.4,99.9,86.9,36.9,75,67,32,30.24,29.89,11,4,22,0.00
2012-10-28,124.3,109.4,59.0,99.9,83.8,35.2,75,64,27,30.36,30.24,8,5,16,0.00
2012-10-29,124.3,119.1,63.1,99.9,95.5,45.6,75,74,42,30.33,30.15,8,4,17,0.00
2012-10-30,124.3,120.1,64.6,99.9,96.5,50.3,75,74,49,30.18,30.01,7,3,10,0.00
2012-10-31,124.3,121.3,67.8,99.9,97.0,44.3,75,73,32,30.06,29.92,9,4,14,0.00
2012-11-1,124.3,121.7,78.4,99.9,96.1,36.7,75,72,19,29.83,29.53,11,7,22,0.00
2012-11-2,124.3,118.6,60.6,99.9,94.7,41.4,75,73,43,30.12,29.95,12,8,21,0.03
2012-11-3,124.3,116.3,63.0,99.9,92.6,40.0,75,72,36,30.21,30.09,8,2,16,0.00
2012-11-4,124.3,117.8,67.8,99.9,94.0,50.4,75,72,39,30.18,30.04,11,2,19,0.00
2012-11-5,124.3,123.4,71.1,99.9,99.2,54.1,75,75,55,30.15,29.98,11,6,19,0.00
2012-11-6,124.3,119.8,70.7,99.9,95.8,53.4,75,73,45,30.06,29.89,11,6,21,0.00
2012-11-7,124.3,123.4,76.3,99.9,99.1,54.1,75,75,47,29.98,29.77,7,3,10,0.00
2012-11-8,124.3,124.3,124.3,99.9,99.9,99.9,75,75,75,29.98,29.89,10,3,14,0.00
2012-11-9,124.3,120.7,66.6,99.9,97.2,55.7,80,75,54,30.01,29.89,7,4,12,0.00
2012-11-10,124.3,117.7,63.1,99.9,93.9,42.5,75,72,44,30.36,30.04,9,6,23,0.00
2012-11-11,124.3,122.4,72.7,99.9,97.6,35.4,75,73,25,30.39,30.33,8,4,18,0.00
2012-11-12,124.3,124.3,124.3,99.9,99.9,99.9,75,75,75,30.39,30.30,1,0,2,0.00
2012-11-13,124.3,124.3,124.3,99.9,99.9,99.9,75,75,75,30.18,30.04,11,6,19,0.00
2012-11-14,124.3,124.3,124.3,99.9,99.9,99.9,75,75,75,30.12,30.09,5,4,10,0.00
2012-11-15,124.3,115.3,69.1,99.9,91.7,53.6,75,70,39,30.12,29.80,7,3,14,0.00
2012-11-16,124.3,120.7,65.3,99.9,97.6,60.8,88,76,75,29.92,29.86,8,4,10,0.04
2012-11-17,124.3,124.3,124.3,99.9,99.9,99.9,75,75,75,30.09,29.98,8,5,14,0.00
2012-11-18,124.3,124.3,124.3,99.9,99.9,99.9,75,75,75,29.83,29.80,2,2,3,0.00
2012-11-19,124.3,124.3,124.3,99.9,99.9,99.9,75,75,75,30.09,29.98,6,4,11,0.00
2012-11-20,124.3,118.7,63.7,99.9,94.9,44.5,75,73,38,30.21,30.18,12,7,22,0.00
2012-11-21,124.3,122.1,68.7,99.9,98.2,55.2,75,74,60,30.15,29.89,9,5,15,0.00
2012-11-22,124.3,118.8,64.6,99.9,95.1,47.6,75,73,53,30.15,30.01,11,7,22,0.00
2012-11-23,124.3,119.7,66.0,99.9,96.2,52.2,75,74,58,30.18,30.09,9,6,19,0.00
2012-11-24,124.3,99.3,32.0,99.9,76.6,51.8,75,61,36,30.12,0.00,8,2,15,0.00
2012-11-25,105.4,91.0,73.2,72.5,53.7,46.3,87,30,15,29.98,29.86,8,4,12,0.00
2012-11-26,87.6,80.3,69.3,69.5,62.2,56.8,95,57,38,30.01,29.89,9,4,16,0.04
2012-11-27,86.4,71.8,67.3,67.3,63.7,55.0,97,79,39,30.12,29.86,8,3,18,0.04
2012-11-28,83.3,67.9,63.9,66.0,63.3,51.4,98,87,37,30.07,29.95,6,2,13,0.00
2012-11-29,88.2,84.1,72.7,66.2,59.7,57.4,80,45,37,29.95,29.86,10,6,23,0.00
2012-11-30,103.5,93.5,78.6,67.6,61.6,53.5,67,37,20,29.89,29.80,7,4,12,0.00
2012-12-1,91.0,77.0,73.2,69.6,65.8,61.9,82,69,42,29.95,29.86,6,3,13,0.00
2012-12-2,68.7,68.6,68.2,65.5,65.0,64.5,90,88,87,29.98,29.95,7,5,16,0.00
2012-12-3,80.1,69.1,65.8,67.5,64.7,58.4,98,87,53,29.89,29.65,5,3,9,0.00
2012-12-4,92.8,84.5,69.1,63.9,42.6,31.9,63,24,12,29.77,29.56,10,6,20,0.00
2012-12-5,87.1,79.7,66.0,48.0,32.2,27.0,52,18,13,29.95,29.71,11,7,21,0.00
2012-12-6,81.5,75.5,65.5,53.2,42.5,33.4,53,31,20,30.18,30.07,11,6,17,0.00
2012-12-7,74.8,70.9,68.7,50.2,47.8,45.9,46,44,41,30.30,30.24,5,4,10,0.00
2012-12-8,69.3,69.1,68.9,57.9,57.7,57.2,68,67,66,30.18,30.15,2,1,6,0.00
2012-12-9,63.7,63.0,62.4,61.3,59.8,58.1,95,89,83,30.18,30.18,11,9,23,0.00
2012-12-10,63.0,62.4,61.9,62.2,61.6,61.0,98,97,96,30.30,30.27,9,7,20,0.00
2012-12-11,69.8,64.5,61.9,63.6,61.8,60.1,98,92,73,30.30,30.21,9,6,17,0.82
2012-12-12,81.3,81.2,81.0,55.4,54.9,54.4,41,40,40,30.30,30.30,6,6,10,0.00
2012-12-13,84.6,79.4,70.0,65.8,54.4,47.0,81,44,30,30.27,30.07,9,5,16,0.00
2012-12-14,86.5,80.0,72.5,60.4,57.4,51.2,65,47,31,30.01,29.86,10,4,18,0.00
2012-12-15,82.0,70.5,66.7,66.1,59.5,56.0,80,69,43,29.89,29.71,4,1,8,0.00
2012-12-16,107.1,79.4,70.7,64.7,56.9,40.5,79,51,14,29.77,29.53,9,4,20,0.00
2012-12-17,74.7,70.2,67.8,57.0,53.2,49.0,68,55,43,29.95,29.86,9,6,17,0.00
2012-12-18,81.3,75.6,70.5,67.3,59.5,55.1,88,58,45,29.92,29.80,8,4,17,0.00
2012-12-19,84.4,73.6,69.8,70.7,65.4,59.8,92,77,47,29.95,29.68,11,4,22,0.00
2012-12-20,93.4,77.1,68.9,72.8,65.6,51.5,95,72,27,30.01,29.62,14,4,29,0.00
2012-12-21,75.0,69.5,68.4,65.2,56.9,53.7,88,65,51,30.09,30.01,8,4,16,0.00
2012-12-22,84.4,71.5,69.3,66.2,64.3,58.5,90,79,44,30.07,29.92,9,2,15,0.00
2012-12-23,85.6,74.5,67.8,74.7,67.7,63.4,98,81,48,29.98,29.86,13,2,24,0.00
2012-12-24,99.7,74.4,67.3,73.0,67.2,54.1,98,81,27,29.98,29.71,10,2,19,0.00
2012-12-25,73.6,69.6,63.7,70.6,68.5,63.1,98,97,83,29.98,29.80,9,4,20,0.50
2012-12-26,72.0,64.6,63.3,64.2,62.2,56.9,98,92,62,30.01,29.92,9,5,19,0.04